createdAt,value
2018-02-23T19:46:29.262Z,96023.05
2018-02-23T19:49:01.694Z,96010.80
2018-02-23T19:51:33.493Z,96015.13
2018-02-23T19:54:07.776Z,96019.28
2018-02-23T19:56:38.990Z,96011.49
2018-02-23T19:59:11.783Z,96019.66
2018-02-23T20:01:43.443Z,96017.25
2018-02-23T20:04:13.293Z,96017.30
2018-02-23T20:07:01.645Z,96013.16
2018-02-23T20:09:32.990Z,96007.98
2018-02-23T20:12:02.694Z,96007.33
2018-02-23T20:14:33.564Z,96014.95
2018-02-23T20:17:03.990Z,96018.81
2018-02-23T20:19:35.900Z,96015.49
2018-02-23T20:22:10.270Z,96006.97
2018-02-23T20:24:53.059Z,96001.12
2018-02-23T20:27:23.263Z,95999.02
2018-02-23T20:29:56.491Z,95995.80
2018-02-23T20:32:28.876Z,95998.36
2018-02-23T20:35:02.507Z,95996.51
2018-02-23T20:37:32.262Z,95998.63
2018-02-23T20:40:03.157Z,95987.44
2018-02-23T20:42:36.192Z,95985.59
2018-02-23T20:45:08.411Z,95979.58
2018-02-23T20:47:38.146Z,95962.36
2018-02-23T20:50:07.975Z,95968.41
2018-02-23T20:52:41.698Z,95975.32
2018-02-23T20:55:15.649Z,95969.69
2018-02-23T20:57:47.631Z,95970.23
2018-02-23T21:00:19.731Z,95970.34
2018-02-23T21:02:53.452Z,95980.91
2018-02-23T21:05:25.879Z,95975.84
2018-02-23T21:11:02.116Z,95975.91
2018-02-23T21:13:37.837Z,95977.50
2018-02-23T21:16:11.172Z,95964.01
2018-02-23T21:18:43.483Z,95958.45
2018-02-23T21:21:13.913Z,95967.90
2018-02-23T21:23:44.260Z,95965.48
2018-02-23T21:26:15.560Z,95959.84
2018-02-23T21:28:46.673Z,95953.32
2018-02-23T21:31:23.216Z,95957.98
2018-02-23T21:33:58.669Z,95968.41
2018-02-23T21:36:28.851Z,95975.66
2018-02-23T21:39:01.356Z,95979.15
2018-02-23T21:41:49.952Z,95972.37
2018-02-23T21:44:22.375Z,95969.34
2018-02-23T21:47:03.008Z,95980.02
2018-02-23T21:49:41.222Z,95979.86
2018-02-23T21:52:13.567Z,95980.69
2018-02-23T21:54:44.217Z,95976.80
2018-02-23T21:57:14.341Z,95987.22
2018-02-23T21:59:44.374Z,95995.16
2018-02-23T22:02:14.592Z,95988.50
2018-02-23T22:04:46.957Z,95985.64
2018-02-23T22:07:18.798Z,95984.13
2018-02-23T22:14:50.108Z,95983.36
2018-02-23T22:17:20.977Z,95987.06
2018-02-23T22:37:38.813Z,95986.77
2018-02-23T22:40:12.300Z,95992.26
2018-02-23T22:42:42.107Z,95995.64
2018-02-23T22:45:12.562Z,96006.21
2018-02-23T22:47:44.624Z,95997.33
2018-02-23T22:50:15.604Z,95991.22
2018-02-23T22:53:10.658Z,95991.22
2018-02-23T22:55:46.812Z,95978.06
2018-02-23T22:58:20.540Z,95977.24
2018-02-23T23:00:55.462Z,95963.52
2018-02-23T23:03:27.917Z,95967.94
2018-02-23T23:06:01.815Z,95969.27
2018-02-23T23:08:34.482Z,95962.48
2018-02-23T23:44:50.275Z,95961.47
